Time;durP1;ratioP1;P1;durP2;ratioP2;P2;SDS_P1;SDS_P2;PMS_P1;PMS_P2;Temp;Humidity;BMP_temperature;BMP_pressure;BME280_temperature;BME280_humidity;BME280_pressure;Samples;Min_cycle;Max_cycle;Signal;HPM_P1;HPM_P2
2023/10/18 00:01:08;;;;;;;5.60;3.83;;;5.60;99.90;;;;;;5036878;28;20094;-79
2023/10/18 00:03:36;;;;;;;12.40;5.28;;;5.80;99.90;;;;;;5053241;28;20309;-80
2023/10/18 00:06:12;;;;;;;8.93;4.88;;;;;;;;;;5038932;28;20489;-78
2023/10/18 00:08:41;;;;;;;5.07;4.18;;;5.80;99.90;;;;;;5030793;28;20422;-78
2023/10/18 00:11:07;;;;;;;7.03;4.63;;;7.90;99.90;;;;;;5031398;28;20612;-79
2023/10/18 00:13:33;;;;;;;9.00;5.30;;;6.50;99.90;;;;;;5041764;28;20037;-80
2023/10/18 00:16:04;;;;;;;9.95;4.88;;;8.10;99.90;;;;;;5037081;28;20095;-78
2023/10/18 00:18:30;;;;;;;7.85;5.63;;;5.80;99.90;;;;;;5036196;28;20048;-79
2023/10/18 00:21:03;;;;;;;8.35;5.85;;;5.70;99.90;;;;;;5034744;28;20045;-80
2023/10/18 00:23:32;;;;;;;8.82;5.90;;;5.80;99.90;;;;;;5039086;28;20551;-78
2023/10/18 00:26:09;;;;;;;7.68;6.18;;;5.80;99.90;;;;;;5042701;28;20652;-77
2023/10/18 00:28:37;;;;;;;9.88;7.20;;;5.80;99.90;;;;;;5033666;28;20064;-79
2023/10/18 00:31:17;;;;;;;11.60;8.38;;;7.40;99.90;;;;;;5037140;28;20120;-79
2023/10/18 00:33:44;;;;;;;14.02;8.30;;;5.80;99.90;;;;;;5026656;28;20087;-80
2023/10/18 00:36:11;;;;;;;12.10;8.38;;;7.80;99.90;;;;;;5032386;28;20041;-79
2023/10/18 00:38:40;;;;;;;14.00;9.43;;;5.60;99.90;;;;;;5060684;28;20072;-79
2023/10/18 00:41:14;;;;;;;16.63;9.80;;;5.70;99.90;;;;;;5035917;28;20053;-80
2023/10/18 00:43:44;;;;;;;14.30;10.18;;;7.20;99.90;;;;;;5033799;28;20040;-79
2023/10/18 00:46:10;;;;;;;16.58;10.82;;;5.60;99.90;;;;;;5041443;28;20064;-80
2023/10/18 00:48:36;;;;;;;16.92;10.60;;;7.10;99.90;;;;;;5038890;28;20073;-80
2023/10/18 00:51:03;;;;;;;16.38;10.15;;;7.70;99.90;;;;;;5035401;28;20131;-81
2023/10/18 00:53:33;;;;;;;15.75;9.85;;;5.70;99.90;;;;;;5035729;28;20045;-77
2023/10/18 00:55:59;;;;;;;14.90;9.27;;;5.60;99.90;;;;;;5053197;28;20055;-80
2023/10/18 00:58:27;;;;;;;15.43;10.75;;;7.30;99.90;;;;;;5039176;28;20043;-79
2023/10/18 01:00:56;;;;;;;16.20;10.18;;;7.00;99.90;;;;;;5040664;28;20029;-80
2023/10/18 01:06:26;;;;;;;15.48;10.23;;;5.50;99.90;;;;;;5010851;28;20094;-78
2023/10/18 01:08:52;;;;;;;14.48;10.43;;;8.00;99.90;;;;;;5033928;28;20044;-77
2023/10/18 01:11:28;;;;;;;18.50;10.85;;;7.90;99.90;;;;;;5037998;28;20489;-78
2023/10/18 01:14:00;;;;;;;13.77;9.68;;;7.70;99.90;;;;;;5040606;28;20457;-79
2023/10/18 01:16:31;;;;;;;24.60;11.82;;;5.50;99.90;;;;;;5038591;28;21523;-80
2023/10/18 01:18:56;;;;;;;14.95;10.50;;;6.70;99.90;;;;;;5052594;28;20052;-81
2023/10/18 01:21:23;;;;;;;15.93;10.40;;;7.60;99.90;;;;;;5036425;28;20048;-80
2023/10/18 01:23:51;;;;;;;17.13;11.43;;;5.60;99.90;;;;;;5024219;28;20584;-80
2023/10/18 01:26:28;;;;;;;16.60;10.63;;;7.40;99.90;;;;;;5035835;28;20053;-79
2023/10/18 01:28:56;;;;;;;15.80;11.18;;;5.50;99.90;;;;;;5037497;28;20658;-80
2023/10/18 01:31:23;;;;;;;17.60;12.02;;;6.60;99.90;;;;;;5043905;28;20801;-77
2023/10/18 01:33:50;;;;;;;17.55;11.40;;;7.50;99.90;;;;;;5053751;28;20047;-79
2023/10/18 01:36:17;;;;;;;16.75;11.93;;;6.70;99.90;;;;;;5034035;28;20424;-79
2023/10/18 01:38:46;;;;;;;17.90;12.55;;;7.50;99.90;;;;;;5044365;28;20063;-78
2023/10/18 01:41:16;;;;;;;18.88;12.05;;;5.40;99.90;;;;;;5042021;28;20079;-79
2023/10/18 01:43:44;;;;;;;19.25;12.27;;;7.60;99.90;;;;;;5036001;28;20036;-79
2023/10/18 01:46:13;;;;;;;19.30;12.35;;;5.50;99.90;;;;;;5027228;28;20047;-79
2023/10/18 01:48:39;;;;;;;17.23;12.32;;;7.10;99.90;;;;;;5043865;28;20737;-80
2023/10/18 01:51:09;;;;;;;21.65;13.52;;;7.80;99.90;;;;;;5042317;28;20040;-81
2023/10/18 01:53:38;;;;;;;15.43;10.95;;;5.50;99.90;;;;;;5061958;28;20087;-80
2023/10/18 01:56:04;;;;;;;17.73;11.05;;;7.30;99.90;;;;;;5039970;28;20509;-80
2023/10/18 01:58:30;;;;;;;20.30;12.30;;;7.10;99.90;;;;;;5042875;28;20124;-81
2023/10/18 02:00:57;;;;;;;16.83;11.30;;;7.60;99.90;;;;;;5039577;28;20033;-78
2023/10/18 02:03:24;;;;;;;18.65;11.63;;;5.50;99.90;;;;;;5049882;28;20399;-78
2023/10/18 02:05:50;;;;;;;16.58;11.82;;;5.10;99.90;;;;;;5039113;28;20039;-78
2023/10/18 02:08:16;;;;;;;17.25;11.02;;;7.30;99.90;;;;;;5034810;28;20050;-80
2023/10/18 02:10:44;;;;;;;16.13;12.35;;;5.40;99.90;;;;;;5032066;28;20037;-80
2023/10/18 02:13:11;;;;;;;18.67;11.57;;;6.80;99.90;;;;;;5034281;28;20152;-81
2023/10/18 02:15:40;;;;;;;15.88;11.10;;;7.30;99.90;;;;;;5033079;28;20036;-78
2023/10/18 02:18:10;;;;;;;24.08;12.52;;;7.10;99.90;;;;;;5030634;28;20033;-80
2023/10/18 02:20:39;;;;;;;14.25;11.00;;;5.80;99.90;;;;;;5033290;28;20040;-80
2023/10/18 02:23:11;;;;;;;16.85;11.35;;;7.40;99.90;;;;;;5031508;28;20052;-78
2023/10/18 02:25:44;;;;;;;16.63;10.77;;;6.70;99.90;;;;;;5034620;28;20049;-78
2023/10/18 02:28:23;;;;;;;18.65;10.85;;;5.40;99.90;;;;;;5036511;28;20412;-80
2023/10/18 02:33:44;;;;;;;12.65;10.45;;;5.20;99.90;;;;;;5050774;28;20048;-79
2023/10/18 02:36:20;;;;;;;;;;;5.10;99.90;;;;;;5030823;28;20060;-78
2023/10/18 02:38:46;;;;;;;14.52;10.35;;;;;;;;;;5027868;28;19933;-79
2023/10/18 02:41:15;;;;;;;19.55;11.20;;;5.30;99.90;;;;;;5040035;28;20041;-79
2023/10/18 02:43:50;;;;;;;14.35;9.95;;;5.30;99.90;;;;;;5034735;28;20090;-79
2023/10/18 02:46:20;;;;;;;14.52;10.10;;;5.20;99.90;;;;;;5049182;28;20045;-77
2023/10/18 02:48:47;;;;;;;17.52;11.02;;;7.30;99.90;;;;;;5032842;28;20040;-78
2023/10/18 02:51:14;;;;;;;15.80;10.55;;;6.70;99.90;;;;;;5030806;28;20044;-80
2023/10/18 02:53:41;;;;;;;14.05;10.75;;;7.50;99.90;;;;;;5030298;28;20177;-79
2023/10/18 02:56:17;;;;;;;17.73;12.50;;;7.60;99.90;;;;;;5028633;28;20029;-80
2023/10/18 02:58:49;;;;;;;15.50;11.65;;;5.10;99.90;;;;;;5029076;28;20064;-78
2023/10/18 03:01:19;;;;;;;13.52;11.40;;;7.20;99.90;;;;;;5029853;28;20477;-80
2023/10/18 03:03:54;;;;;;;18.25;12.18;;;5.90;99.90;;;;;;5032054;28;20049;-81
2023/10/18 03:06:24;;;;;;;14.93;10.65;;;6.80;99.90;;;;;;5047615;28;20033;-79
2023/10/18 03:08:50;;;;;;;16.52;12.40;;;5.30;99.90;;;;;;5032530;28;20036;-81
2023/10/18 03:11:20;;;;;;;15.52;10.93;;;6.50;99.90;;;;;;5032885;28;20045;-80
2023/10/18 03:13:46;;;;;;;15.75;12.38;;;5.00;99.90;;;;;;5049552;28;20036;-78
2023/10/18 03:18:45;;;;;;;20.23;12.63;;;5.20;99.90;;;;;;5047465;28;20124;-80
2023/10/18 03:21:20;;;;;;;18.90;12.60;;;5.20;99.90;;;;;;5040245;28;20036;-80
2023/10/18 03:23:53;;;;;;;18.88;11.73;;;7.10;99.90;;;;;;5035095;28;20125;-80
2023/10/18 03:26:23;;;;;;;19.25;13.10;;;5.20;99.90;;;;;;5028251;28;20048;-80
2023/10/18 03:28:52;;;;;;;20.73;12.73;;;7.50;99.90;;;;;;5041143;28;20691;-79
2023/10/18 03:31:36;;;;;;;17.08;12.63;;;6.50;99.90;;;;;;5039886;28;20127;-80
2023/10/18 03:34:02;;;;;;;17.85;12.80;;;6.30;99.90;;;;;;5039613;28;20044;-80
2023/10/18 03:36:35;;;;;;;17.00;12.82;;;5.70;99.90;;;;;;5039983;28;20434;-78
2023/10/18 03:39:13;;;;;;;14.55;12.18;;;7.30;99.90;;;;;;5037533;28;20052;-80
2023/10/18 03:41:42;;;;;;;18.15;13.50;;;7.50;99.90;;;;;;5065577;28;20035;-79
2023/10/18 03:44:08;;;;;;;19.73;13.38;;;6.60;99.90;;;;;;5047059;28;20041;-78
2023/10/18 03:49:33;;;;;;;17.75;12.60;;;5.70;99.90;;;;;;5029562;28;20114;-80
2023/10/18 03:52:27;;;;;;;17.52;12.77;;;5.20;99.90;;;;;;5036152;28;20477;-79
2023/10/18 03:57:37;;;;;;;16.42;12.80;;;7.00;99.90;;;;;;5054630;28;20140;-81
2023/10/18 04:00:28;;;;;;;17.85;13.00;;;5.10;99.90;;;;;;5026567;28;20323;-81
2023/10/18 04:02:56;;;;;;;17.75;13.48;;;5.20;99.90;;;;;;5047995;28;20045;-81
2023/10/18 04:08:04;;;;;;;17.67;13.50;;;5.00;99.90;;;;;;5050439;28;20045;-79
2023/10/18 04:10:35;;;;;;;16.67;12.73;;;5.10;99.90;;;;;;5056396;28;20040;-80
2023/10/18 04:13:02;;;;;;;15.90;13.25;;;5.20;99.90;;;;;;5021491;28;20048;-79
2023/10/18 04:15:34;;;;;;;16.60;13.05;;;;;;;;;;5025469;28;20041;-77
2023/10/18 04:18:11;;;;;;;22.95;14.23;;;5.10;99.90;;;;;;5027395;28;20049;-78
2023/10/18 04:20:40;;;;;;;19.40;13.27;;;5.30;99.90;;;;;;5031729;28;20567;-80
2023/10/18 04:23:15;;;;;;;19.88;13.52;;;4.90;99.90;;;;;;5028023;28;20037;-79
2023/10/18 04:25:57;;;;;;;18.73;13.65;;;5.10;99.90;;;;;;5029309;28;20048;-81
2023/10/18 04:28:23;;;;;;;17.77;14.20;;;5.00;99.90;;;;;;5029125;28;20041;-80
2023/10/18 04:30:53;;;;;;;21.90;13.23;;;7.40;99.90;;;;;;5024454;28;20107;-81
2023/10/18 04:35:47;;;;;;;17.73;13.15;;;6.90;99.90;;;;;;5048121;28;20048;-80
2023/10/18 04:38:22;;;;;;;20.92;14.55;;;7.10;99.90;;;;;;5041096;28;20048;-79
2023/10/18 04:40:55;;;;;;;21.33;15.30;;;5.10;99.90;;;;;;5022826;28;20131;-78
2023/10/18 04:43:26;;;;;;;21.13;15.05;;;7.40;99.90;;;;;;5034875;28;20064;-80
2023/10/18 04:45:59;;;;;;;19.25;13.93;;;5.60;99.90;;;;;;5037727;28;20072;-80
2023/10/18 04:51:33;;;;;;;25.43;15.30;;;6.60;99.90;;;;;;4992854;28;20048;-82
2023/10/18 04:54:01;;;;;;;19.95;14.02;;;5.10;99.90;;;;;;4987953;28;20055;-79
2023/10/18 04:56:34;;;;;;;18.33;14.30;;;5.00;99.90;;;;;;5015055;28;20330;-81
2023/10/18 04:59:06;;;;;;;18.90;13.90;;;7.10;99.90;;;;;;5039035;28;20471;-78
2023/10/18 05:01:41;;;;;;;20.90;14.55;;;5.90;99.90;;;;;;5036998;28;20496;-81
2023/10/18 05:06:55;;;;;;;25.33;15.23;;;5.00;99.90;;;;;;5051981;28;20037;-81
2023/10/18 05:09:32;;;;;;;22.80;14.70;;;6.50;99.90;;;;;;5042093;28;20059;-81
2023/10/18 05:11:59;;;;;;;17.40;14.18;;;5.10;99.90;;;;;;5038741;28;20044;-81
2023/10/18 05:14:43;;;;;;;19.48;15.00;;;6.60;99.90;;;;;;5042095;28;20041;-79
2023/10/18 05:17:17;;;;;;;21.05;14.95;;;5.00;99.90;;;;;;5046264;28;20043;-77
2023/10/18 05:19:44;;;;;;;;;;;6.40;99.90;;;;;;5044592;28;20041;-81
2023/10/18 05:22:17;;;;;;;25.83;15.20;;;5.00;99.90;;;;;;5034049;28;19924;-79
2023/10/18 05:24:46;;;;;;;21.48;15.80;;;7.10;99.90;;;;;;5041574;28;20040;-80
2023/10/18 05:27:24;;;;;;;22.77;16.35;;;4.90;99.90;;;;;;5057761;28;20408;-80
2023/10/18 05:29:57;;;;;;;21.90;15.13;;;4.90;99.90;;;;;;5030843;28;20036;-81
2023/10/18 05:35:19;;;;;;;24.70;15.85;;;5.00;99.90;;;;;;5043906;28;20066;-79
2023/10/18 05:43:13;;;;;;;22.58;16.77;;;5.00;99.90;;;;;;5061614;28;20053;-80
2023/10/18 05:45:42;;;;;;;22.50;17.30;;;5.00;99.90;;;;;;5048402;28;20090;-80
2023/10/18 05:48:17;;;;;;;23.30;16.40;;;7.20;99.90;;;;;;5066553;28;20146;-78
2023/10/18 05:53:31;;;;;;;19.95;16.30;;;7.10;99.90;;;;;;5046586;28;20048;-78
2023/10/18 05:55:57;;;;;;;21.38;16.63;;;4.70;99.90;;;;;;5045087;28;20056;-79
2023/10/18 05:58:25;;;;;;;21.27;16.92;;;4.70;99.90;;;;;;5061821;28;20041;-81
2023/10/18 06:00:56;;;;;;;24.33;16.63;;;6.60;99.90;;;;;;5049512;28;20041;-79
2023/10/18 06:03:35;;;;;;;21.23;16.15;;;4.90;99.90;;;;;;5052565;28;20096;-80
2023/10/18 06:06:04;;;;;;;24.45;16.95;;;6.60;99.90;;;;;;5047655;28;20064;-77
2023/10/18 06:08:29;;;;;;;21.52;16.25;;;7.10;99.90;;;;;;5045410;28;20473;-79
2023/10/18 06:11:08;;;;;;;22.55;16.38;;;6.90;99.90;;;;;;5047774;28;20028;-79
2023/10/18 06:13:37;;;;;;;25.67;17.73;;;7.00;99.90;;;;;;5042261;28;20094;-79
2023/10/18 06:16:19;;;;;;;21.77;16.95;;;5.30;99.90;;;;;;5038199;28;20028;-77
2023/10/18 06:18:49;;;;;;;21.90;16.83;;;4.90;99.90;;;;;;5045176;28;20101;-79
2023/10/18 06:21:18;;;;;;;22.75;16.42;;;4.90;99.90;;;;;;5052819;28;20041;-77
2023/10/18 06:23:57;;;;;;;21.83;16.75;;;7.50;99.90;;;;;;5043540;28;20044;-77
2023/10/18 06:26:29;;;;;;;21.00;16.77;;;7.30;99.90;;;;;;5035473;28;20563;-78
2023/10/18 06:29:02;;;;;;;24.95;17.60;;;6.30;99.90;;;;;;5055324;28;20052;-80
2023/10/18 06:31:31;;;;;;;22.52;17.17;;;6.80;99.90;;;;;;5042569;28;20166;-79
2023/10/18 06:34:02;;;;;;;21.65;15.63;;;6.70;99.90;;;;;;5043193;28;20063;-84
2023/10/18 06:36:32;;;;;;;20.85;16.52;;;4.90;99.90;;;;;;5064855;28;20041;-80
2023/10/18 06:38:58;;;;;;;21.60;15.88;;;5.60;99.90;;;;;;5046246;28;20429;-80
2023/10/18 06:41:29;;;;;;;22.25;15.50;;;4.80;99.90;;;;;;4681343;28;10000027;-79
2023/10/18 06:43:58;;;;;;;26.48;17.92;;;6.20;99.90;;;;;;5045807;28;20045;-79
2023/10/18 06:46:27;;;;;;;21.52;17.27;;;7.10;99.90;;;;;;5029945;28;20073;-80
2023/10/18 06:48:55;;;;;;;22.10;17.10;;;6.80;99.90;;;;;;5025854;28;20048;-77
2023/10/18 06:54:31;;;;;;;21.27;16.08;;;6.60;99.90;;;;;;5004451;28;20150;-80
2023/10/18 06:56:58;;;;;;;24.08;16.73;;;5.00;99.90;;;;;;5039152;28;20530;-80
2023/10/18 06:59:28;;;;;;;23.33;17.50;;;7.40;99.90;;;;;;5043843;28;20499;-80
2023/10/18 07:02:00;;;;;;;22.58;16.38;;;4.90;99.90;;;;;;5042116;28;20078;-80
2023/10/18 07:04:35;;;;;;;23.02;17.02;;;7.30;99.90;;;;;;5024658;28;20135;-77
2023/10/18 07:07:01;;;;;;;26.52;17.52;;;5.00;99.90;;;;;;5055007;28;20447;-79
2023/10/18 07:09:31;;;;;;;31.98;17.23;;;7.10;99.90;;;;;;5031691;28;20094;-80
2023/10/18 07:11:57;;;;;;;25.17;17.83;;;6.70;99.90;;;;;;5036853;28;20512;-78
2023/10/18 07:14:26;;;;;;;29.10;17.25;;;7.40;99.90;;;;;;5039970;28;20045;-80
2023/10/18 07:16:55;;;;;;;23.40;16.85;;;5.40;99.90;;;;;;5029390;28;20607;-78
2023/10/18 07:21:50;;;;;;;23.55;17.23;;;7.40;99.90;;;;;;5030227;28;20041;-78
2023/10/18 07:24:20;;;;;;;21.20;15.43;;;7.40;99.90;;;;;;5037022;28;20033;-78
2023/10/18 07:26:47;;;;;;;26.70;17.92;;;5.00;99.90;;;;;;5040352;28;20181;-80
2023/10/18 07:29:15;;;;;;;23.17;15.80;;;7.50;99.90;;;;;;5039387;28;20056;-81
2023/10/18 07:31:46;;;;;;;21.08;16.25;;;6.70;99.90;;;;;;5039764;28;20049;-78
2023/10/18 07:34:19;;;;;;;24.67;16.33;;;7.80;99.90;;;;;;5041392;28;20036;-81
2023/10/18 07:36:46;;;;;;;20.33;16.15;;;5.40;99.90;;;;;;5038806;28;20143;-78
2023/10/18 07:39:16;;;;;;;21.92;15.07;;;6.80;99.90;;;;;;5036678;28;20045;-81
2023/10/18 07:41:42;;;;;;;22.55;15.88;;;5.30;99.90;;;;;;5030505;28;20432;-80
2023/10/18 07:44:08;;;;;;;20.92;15.65;;;5.30;99.90;;;;;;5022139;28;20037;-81
2023/10/18 07:46:40;;;;;;;25.27;16.40;;;7.40;99.90;;;;;;5038435;28;20473;-81
2023/10/18 07:49:14;;;;;;;21.08;15.48;;;5.60;99.90;;;;;;5053471;28;20044;-81
2023/10/18 07:51:49;;;;;;;20.08;14.98;;;7.70;99.90;;;;;;5040965;28;20048;-81
2023/10/18 07:54:21;;;;;;;22.85;15.70;;;6.10;99.90;;;;;;5034966;28;20556;-82
2023/10/18 07:56:49;;;;;;;22.35;16.25;;;7.50;99.90;;;;;;5041531;28;20396;-81
2023/10/18 07:59:32;;;;;;;27.50;16.30;;;5.70;99.90;;;;;;5035153;28;20075;-81
2023/10/18 08:04:43;;;;;;;19.92;15.07;;;6.70;99.90;;;;;;5054597;28;20497;-82
2023/10/18 08:07:14;;;;;;;21.55;16.17;;;6.70;99.90;;;;;;5032097;28;20029;-81
2023/10/18 08:09:44;;;;;;;22.60;15.27;;;5.90;99.90;;;;;;5056443;28;20080;-81
2023/10/18 08:15:13;;;;;;;21.20;15.18;;;5.90;99.90;;;;;;5032203;28;20362;-81
2023/10/18 08:17:46;;;;;;;30.08;13.77;;;6.00;99.90;;;;;;5057054;28;20059;-81
2023/10/18 08:22:47;;;;;;;20.02;14.90;;;6.10;99.90;;;;;;5057061;28;20143;-79
2023/10/18 08:25:31;;;;;;;19.75;13.98;;;7.20;99.90;;;;;;5036164;28;20345;-81
2023/10/18 08:27:57;;;;;;;20.92;14.65;;;7.90;99.90;;;;;;5028515;28;20037;-80
2023/10/18 08:31:03;;;;;;;20.98;13.77;;;6.50;99.90;;;;;;5038522;28;20048;-79
2023/10/18 08:33:24;;;;;;;17.77;14.52;;;7.50;99.90;;;;;;5054706;28;20468;-88
2023/10/18 08:35:58;;;;;;;19.20;13.45;;;6.10;99.90;;;;;;5040436;28;20032;-81
2023/10/18 08:38:27;;;;;;;19.15;13.65;;;8.50;99.90;;;;;;5031894;28;20045;-83
2023/10/18 08:41:11;;;;;;;21.17;14.10;;;6.40;99.90;;;;;;5027035;28;20171;-83
2023/10/18 08:43:46;;;;;;;17.75;13.45;;;8.50;99.90;;;;;;5032618;28;20056;-82
2023/10/18 08:46:12;;;;;;;18.55;13.30;;;6.50;99.90;;;;;;5014856;28;20041;-82
2023/10/18 08:48:39;;;;;;;20.27;13.52;;;7.50;99.90;;;;;;5018891;28;20420;-82
2023/10/18 08:51:06;;;;;;;16.00;12.75;;;8.40;99.90;;;;;;5037988;28;20084;-80
2023/10/18 08:53:34;;;;;;;19.23;13.95;;;8.50;99.90;;;;;;5024448;28;20095;-81
2023/10/18 08:56:05;;;;;;;16.33;13.05;;;8.80;99.90;;;;;;5023630;28;20040;-80
2023/10/18 08:58:33;;;;;;;20.15;13.32;;;8.80;99.90;;;;;;5017860;28;20040;-79
2023/10/18 09:03:27;;;;;;;16.90;13.40;;;7.90;99.90;;;;;;5057394;28;20078;-79
2023/10/18 09:06:07;;;;;;;19.67;14.00;;;8.90;99.90;;;;;;5015703;28;20384;-82
2023/10/18 09:08:42;;;;;;;17.85;13.52;;;8.90;99.90;;;;;;5021742;28;20055;-80
2023/10/18 09:11:21;;;;;;;19.42;13.50;;;6.90;99.90;;;;;;5014681;28;20041;-81
2023/10/18 09:14:07;;;;;;;17.55;13.52;;;7.20;99.90;;;;;;5019365;28;20124;-79
2023/10/18 09:16:45;;;;;;;20.00;13.18;;;7.20;99.90;;;;;;5024074;28;20963;-84
2023/10/18 09:19:10;;;;;;;14.55;12.77;;;8.90;99.90;;;;;;5022145;28;20064;-82
2023/10/18 09:21:44;;;;;;;16.42;13.13;;;9.30;99.90;;;;;;5046424;28;20075;-80
2023/10/18 09:24:54;;;;;;;20.38;13.15;;;8.60;99.90;;;;;;4997009;28;20075;-81
2023/10/18 09:27:39;;;;;;;20.70;12.40;;;7.20;99.90;;;;;;5018560;28;20041;-82
2023/10/18 09:30:10;;;;;;;18.05;11.60;;;7.30;99.90;;;;;;4673125;28;10000856;-82
2023/10/18 09:32:37;;;;;;;15.88;12.07;;;7.30;99.90;;;;;;5032165;28;20265;-82
2023/10/18 09:35:09;;;;;;;16.35;12.13;;;8.40;99.90;;;;;;5036676;28;20063;-83
2023/10/18 09:37:38;;;;;;;14.25;11.13;;;7.40;99.90;;;;;;5037321;28;20111;-83
2023/10/18 09:40:05;;;;;;;17.15;11.45;;;7.40;99.90;;;;;;5058533;28;20040;-81
2023/10/18 09:42:31;;;;;;;12.93;11.00;;;7.50;99.90;;;;;;5027698;28;20044;-79
2023/10/18 09:44:57;;;;;;;14.65;10.68;;;9.20;99.90;;;;;;5045346;28;20500;-83
2023/10/18 09:47:23;;;;;;;14.80;10.93;;;8.80;99.90;;;;;;5030660;28;20459;-79
2023/10/18 09:50:06;;;;;;;14.70;10.68;;;7.80;99.90;;;;;;5039979;28;20124;-80
2023/10/18 09:52:43;;;;;;;14.23;9.65;;;7.60;99.90;;;;;;5043636;28;20075;-81
2023/10/18 09:55:17;;;;;;;13.75;10.43;;;9.30;99.90;;;;;;5053600;28;20052;-81
2023/10/18 09:57:49;;;;;;;16.17;10.57;;;7.80;99.90;;;;;;5044286;28;20036;-81
2023/10/18 10:00:47;;;;;;;15.18;10.85;;;7.70;99.90;;;;;;5046241;28;20437;-80
2023/10/18 10:03:24;;;;;;;19.75;10.73;;;7.30;99.90;;;;;;5035090;28;20052;-81
2023/10/18 10:05:49;;;;;;;12.68;10.35;;;10.20;99.90;;;;;;5036102;28;20051;-81
2023/10/18 10:08:18;;;;;;;13.90;10.82;;;7.80;99.90;;;;;;5059183;28;20044;-82
2023/10/18 10:10:45;;;;;;;13.77;10.40;;;9.50;99.90;;;;;;5045127;28;20329;-82
2023/10/18 10:13:19;;;;;;;11.77;10.15;;;7.90;99.90;;;;;;5058825;28;20075;-81
2023/10/18 10:15:58;;;;;;;13.30;10.40;;;10.00;99.90;;;;;;5050876;28;20047;-80
2023/10/18 10:18:32;;;;;;;11.93;10.02;;;8.10;99.90;;;;;;5044869;28;20044;-81
2023/10/18 10:21:03;;;;;;;12.90;9.75;;;8.20;99.90;;;;;;5037473;28;20036;-80
2023/10/18 10:23:32;;;;;;;11.95;9.70;;;8.30;99.90;;;;;;5047147;28;20058;-81
2023/10/18 10:26:15;;;;;;;13.52;9.90;;;8.30;99.90;;;;;;5043405;28;20392;-81
2023/10/18 10:29:20;;;;;;;16.48;10.45;;;10.10;99.90;;;;;;5037129;28;20055;-79
2023/10/18 10:31:58;;;;;;;12.75;9.27;;;8.40;99.90;;;;;;5043288;28;20044;-80
2023/10/18 10:34:36;;;;;;;15.50;10.88;;;6.60;99.90;;;;;;5023096;28;20040;-80
2023/10/18 10:37:19;;;;;;;15.60;10.63;;;6.90;99.90;;;;;;5047247;28;20045;-80
2023/10/18 10:40:19;;;;;;;13.70;10.32;;;8.50;99.90;;;;;;5019740;28;20057;-80
2023/10/18 10:42:44;;;;;;;13.55;10.43;;;8.50;99.90;;;;;;5041106;28;20052;-82
2023/10/18 10:45:30;;;;;;;13.63;9.77;;;9.20;99.90;;;;;;5020021;28;20484;-82
2023/10/18 10:50:52;;;;;;;13.23;10.48;;;8.70;99.90;;;;;;5043982;28;20057;-82
2023/10/18 10:53:43;;;;;;;11.55;10.15;;;8.80;99.90;;;;;;5031954;28;20057;-82
2023/10/18 10:56:19;;;;;;;11.25;9.77;;;10.80;99.90;;;;;;5015726;28;20052;-81
2023/10/18 10:58:55;;;;;;;13.43;10.27;;;8.90;99.90;;;;;;5037283;28;20110;-80
2023/10/18 11:01:44;;;;;;;12.80;9.80;;;8.90;99.90;;;;;;5047195;28;20141;-81
2023/10/18 11:04:23;;;;;;;10.90;9.75;;;8.90;99.90;;;;;;5028262;28;20045;-81
2023/10/18 11:06:56;;;;;;;12.23;9.93;;;10.60;99.90;;;;;;5053685;28;20088;-80
2023/10/18 11:09:32;;;;;;;12.05;10.40;;;9.50;99.90;;;;;;5030515;28;20040;-79
2023/10/18 11:12:07;;;;;;;11.23;9.90;;;9.10;99.90;;;;;;5034056;28;20427;-80
2023/10/18 11:14:36;;;;;;;17.95;9.70;;;9.10;99.90;;;;;;5039664;28;20044;-79
2023/10/18 11:19:44;;;;;;;11.10;9.48;;;9.20;99.90;;;;;;5062228;28;20441;-81
2023/10/18 11:22:19;;;;;;;12.95;9.45;;;10.00;99.90;;;;;;5040240;28;20043;-79
2023/10/18 11:24:52;;;;;;;10.68;9.52;;;9.30;99.90;;;;;;5034626;28;20432;-78
2023/10/18 11:27:22;;;;;;;11.02;9.70;;;9.40;99.90;;;;;;5030086;28;20665;-80
2023/10/18 11:29:52;;;;;;;12.38;8.77;;;9.40;99.90;;;;;;5031318;28;20428;-79
2023/10/18 11:32:18;;;;;;;11.35;9.52;;;10.50;99.90;;;;;;5034324;28;20041;-79
2023/10/18 11:34:44;;;;;;;12.35;9.38;;;11.20;99.90;;;;;;5040695;28;20040;-79
2023/10/18 11:37:13;;;;;;;10.68;8.90;;;9.70;99.90;;;;;;5039235;28;20041;-81
2023/10/18 11:39:42;;;;;;;10.27;8.88;;;9.60;99.90;;;;;;5040160;28;20672;-80
2023/10/18 11:42:10;;;;;;;11.25;9.00;;;10.50;99.90;;;;;;5034528;28;20045;-80
2023/10/18 11:44:39;;;;;;;11.45;8.43;;;9.60;99.90;;;;;;5032405;28;20044;-80
2023/10/18 11:47:18;;;;;;;9.00;8.05;;;11.30;99.90;;;;;;5034833;28;20033;-80
2023/10/18 11:49:45;;;;;;;12.65;9.23;;;11.20;99.90;;;;;;5040270;28;20037;-82
2023/10/18 11:52:21;;;;;;;9.35;8.00;;;11.00;99.90;;;;;;5042342;28;20078;-80
2023/10/18 11:55:00;;;;;;;9.68;8.50;;;11.30;99.90;;;;;;5026719;28;20041;-80
2023/10/18 11:57:35;;;;;;;8.38;7.45;;;9.80;99.90;;;;;;5038236;28;20559;-80
2023/10/18 12:02:46;;;;;;;;;;;11.70;99.90;;;;;;5043263;28;20045;-79
2023/10/18 12:05:15;;;;;;;11.40;7.88;;;9.90;99.90;;;;;;5033633;28;19920;-79
2023/10/18 12:07:44;;;;;;;10.00;8.38;;;10.00;99.90;;;;;;5041076;28;20043;-81
2023/10/18 12:10:18;;;;;;;9.82;7.82;;;12.00;99.90;;;;;;5029062;28;20037;-81
2023/10/18 12:12:44;;;;;;;10.57;8.88;;;10.00;99.90;;;;;;5036215;28;20046;-80
2023/10/18 12:15:10;;;;;;;9.85;8.30;;;10.10;99.90;;;;;;5050632;28;20040;-80
2023/10/18 12:17:35;;;;;;;8.18;7.38;;;10.10;99.90;;;;;;5031153;28;20648;-81
2023/10/18 12:20:03;;;;;;;12.27;7.90;;;10.20;99.90;;;;;;5038756;28;20033;-79
2023/10/18 12:22:29;;;;;;;9.30;8.30;;;10.20;99.90;;;;;;5039008;28;20041;-80
2023/10/18 12:24:54;;;;;;;11.32;8.20;;;10.20;99.90;;;;;;5041614;28;20091;-80
2023/10/18 12:27:50;;;;;;;10.95;7.85;;;12.20;99.90;;;;;;5051557;28;20071;-80
2023/10/18 12:30:09;;;;;;;10.90;8.30;;;12.00;99.90;;;;;;5047688;28;20116;-81
2023/10/18 12:32:50;;;;;;;9.48;8.02;;;10.30;99.90;;;;;;5030308;28;20033;-83
2023/10/18 12:35:19;;;;;;;8.88;7.97;;;10.30;99.90;;;;;;5049890;28;20075;-81
2023/10/18 12:37:45;;;;;;;11.48;8.20;;;10.30;99.90;;;;;;5043464;28;20086;-82
2023/10/18 12:43:06;;;;;;;13.57;8.82;;;10.40;99.90;;;;;;5037640;28;20048;-81
2023/10/18 12:45:42;;;;;;;10.90;8.27;;;10.40;99.90;;;;;;5055632;28;20049;-77
2023/10/18 12:48:14;;;;;;;10.38;7.78;;;11.40;99.90;;;;;;5038383;28;20073;-79
2023/10/18 12:50:45;;;;;;;13.32;7.80;;;10.40;99.90;;;;;;5030991;28;20048;-79
2023/10/18 12:53:30;;;;;;;8.30;7.22;;;10.40;99.90;;;;;;5040171;28;20044;-80
2023/10/18 12:55:58;;;;;;;9.93;6.97;;;10.40;99.90;;;;;;5041542;28;20040;-78
2023/10/18 12:58:31;;;;;;;9.77;7.90;;;10.40;99.90;;;;;;5044907;28;20430;-81
2023/10/18 13:01:08;;;;;;;11.13;8.15;;;10.40;99.90;;;;;;5033572;28;20757;-80
2023/10/18 13:03:37;;;;;;;12.23;7.78;;;10.40;99.90;;;;;;4346635;28;10000847;-80
2023/10/18 13:06:15;;;;;;;8.98;6.60;;;11.80;99.90;;;;;;5048232;28;20648;-80
2023/10/18 13:08:55;;;;;;;10.30;7.43;;;10.50;99.90;;;;;;5050743;28;21596;-79
2023/10/18 13:14:17;;;;;;;;;;;12.60;99.90;;;;;;5048820;28;20212;-78
2023/10/18 13:16:43;;;;;;;10.45;7.32;;;10.50;99.90;;;;;;5025885;28;19917;-78
2023/10/18 13:19:10;;;;;;;11.70;6.72;;;11.70;99.90;;;;;;5033984;28;20069;-79
2023/10/18 13:21:39;;;;;;;7.03;6.18;;;9.90;99.90;;;;;;5021834;28;20171;-77
2023/10/18 13:24:51;;;;;;;10.85;7.15;;;11.90;99.90;;;;;;5041918;28;20143;-78
2023/10/18 13:26:53;;;;;;;8.88;6.68;;;10.60;99.90;;;;;;5039299;28;20045;-78
2023/10/18 13:31:52;;;;;;;8.18;6.38;;;10.70;99.90;;;;;;5052718;28;20041;-79
2023/10/18 13:34:21;;;;;;;11.57;7.25;;;10.80;99.90;;;;;;5029772;28;20718;-79
2023/10/18 13:36:51;;;;;;;17.05;7.55;;;10.80;99.90;;;;;;5033586;28;20867;-79
2023/10/18 13:39:18;;;;;;;8.90;7.30;;;10.90;99.90;;;;;;5026821;28;20137;-79
2023/10/18 13:41:49;;;;;;;9.95;7.28;;;11.00;99.90;;;;;;5024665;28;20132;-79
2023/10/18 13:44:19;;;;;;;8.85;6.55;;;11.00;99.90;;;;;;5027926;28;20041;-77
2023/10/18 13:46:47;;;;;;;7.88;6.60;;;11.10;99.90;;;;;;5029689;28;20618;-77
2023/10/18 13:49:13;;;;;;;10.32;6.97;;;11.60;99.90;;;;;;5043466;28;20041;-78
2023/10/18 13:51:41;;;;;;;9.73;7.20;;;12.40;99.90;;;;;;5034314;28;20045;-78
2023/10/18 13:54:07;;;;;;;11.15;7.30;;;11.10;99.90;;;;;;5060374;28;20076;-77
2023/10/18 13:56:34;;;;;;;12.40;7.40;;;12.80;99.90;;;;;;5037620;28;20045;-78
2023/10/18 13:59:04;;;;;;;9.65;6.70;;;12.80;99.90;;;;;;5028905;28;20759;-80
2023/10/18 14:01:31;;;;;;;11.02;7.53;;;11.10;99.90;;;;;;5030982;28;20053;-79
2023/10/18 14:03:59;;;;;;;8.65;6.40;;;11.00;99.90;;;;;;5045993;28;20141;-80
2023/10/18 14:06:25;;;;;;;9.82;7.15;;;11.00;99.90;;;;;;5031704;28;20037;-80
2023/10/18 14:08:51;;;;;;;10.13;7.78;;;10.90;99.90;;;;;;5032551;28;20087;-80
2023/10/18 14:11:17;;;;;;;9.15;6.93;;;10.90;99.90;;;;;;5034762;28;20500;-79